RRR2408 EGVN-EGPF
Flight info
| Callsign | RRR2408 |
|---|---|
| Flight time | 0h 49m |
| Altitude | 32000 |
| Route | DTY UY53 SAPCO UN57 POL UN601 RIBEL DCT ASLIB |
| Aircraft | A400/H-SDE2E3FGHIJ4J5M1RWXY/LB1D1 |
Departure
| Time | 2026-04-26 12:25 |
|---|---|
| Airport | RAF Brize Norton (EGVN) |
Arrival
| Time | 2026-04-26 13:15 |
|---|---|
| Airport | Glasgow Airport (EGPF) |
| Time | Latitude | Longitude | Altitude | Speed | Heading |
|---|---|---|---|---|---|
| 2026-04-26 11:57 | 51.75597 | -1.57536 | 273 ft | 0 kts | 108° |
| 2026-04-26 12:18 | 51.75597 | -1.57535 | 273 ft | 0 kts | 108° |
| 2026-04-26 12:18 | 51.75579 | -1.57496 | 273 ft | 8 kts | 141° |
| 2026-04-26 12:18 | 51.75568 | -1.57467 | 273 ft | 3 kts | 69° |
| 2026-04-26 12:18 | 51.75609 | -1.57430 | 273 ft | 12 kts | 20° |
| 2026-04-26 12:19 | 51.75730 | -1.57367 | 273 ft | 23 kts | 18° |
| 2026-04-26 12:19 | 51.75876 | -1.57303 | 273 ft | 18 kts | 352° |
| 2026-04-26 12:19 | 51.75924 | -1.57456 | 273 ft | 16 kts | 253° |
| 2026-04-26 12:19 | 51.75827 | -1.57553 | 273 ft | 20 kts | 199° |
| 2026-04-26 12:20 | 51.75668 | -1.57640 | 273 ft | 28 kts | 198° |
| 2026-04-26 12:20 | 51.75482 | -1.57768 | 274 ft | 28 kts | 207° |
| 2026-04-26 12:20 | 51.75319 | -1.57906 | 274 ft | 25 kts | 208° |
| 2026-04-26 12:20 | 51.75171 | -1.58034 | 274 ft | 23 kts | 208° |
| 2026-04-26 12:21 | 51.75039 | -1.58165 | 273 ft | 22 kts | 229° |
| 2026-04-26 12:21 | 51.74982 | -1.58385 | 274 ft | 24 kts | 252° |
| 2026-04-26 12:21 | 51.74916 | -1.58735 | 276 ft | 33 kts | 253° |
| 2026-04-26 12:21 | 51.74855 | -1.59069 | 275 ft | 29 kts | 254° |
| 2026-04-26 12:22 | 51.74822 | -1.59349 | 273 ft | 23 kts | 251° |
| 2026-04-26 12:22 | 51.74759 | -1.59569 | 271 ft | 22 kts | 237° |
| 2026-04-26 12:22 | 51.74725 | -1.59773 | 271 ft | 23 kts | 259° |
| 2026-04-26 12:22 | 51.74670 | -1.60065 | 273 ft | 29 kts | 234° |
| 2026-04-26 12:23 | 51.74525 | -1.60076 | 273 ft | 19 kts | 196° |
| 2026-04-26 12:23 | 51.74497 | -1.60241 | 273 ft | 16 kts | 301° |
| 2026-04-26 12:23 | 51.74580 | -1.60358 | 274 ft | 16 kts | 338° |
| 2026-04-26 12:23 | 51.74638 | -1.60268 | 274 ft | 6 kts | 72° |
| 2026-04-26 12:24 | 51.74639 | -1.60263 | 274 ft | 0 kts | 72° |
| 2026-04-26 12:24 | 51.74679 | -1.60037 | 273 ft | 76 kts | 75° |
| 2026-04-26 12:25 | 51.75307 | -1.56458 | 849 ft | 216 kts | 75° |
| 2026-04-26 12:25 | 51.75765 | -1.53982 | 1557 ft | 240 kts | 70° |
| 2026-04-26 12:25 | 51.76708 | -1.51768 | 2885 ft | 238 kts | 43° |
| 2026-04-26 12:25 | 51.78487 | -1.49932 | 5147 ft | 222 kts | 22° |
| 2026-04-26 12:26 | 51.79446 | -1.49336 | 6359 ft | 215 kts | 19° |
| 2026-04-26 12:26 | 51.80833 | -1.48562 | 8118 ft | 208 kts | 19° |
| 2026-04-26 12:26 | 51.82246 | -1.47700 | 9461 ft | 232 kts | 22° |
| 2026-04-26 12:26 | 51.83847 | -1.46526 | 10205 ft | 272 kts | 26° |
| 2026-04-26 12:27 | 51.85585 | -1.44996 | 11104 ft | 294 kts | 30° |
| 2026-04-26 12:27 | 51.87366 | -1.43244 | 12202 ft | 304 kts | 32° |
| 2026-04-26 12:27 | 51.89166 | -1.41378 | 13340 ft | 311 kts | 33° |
| 2026-04-26 12:27 | 51.91000 | -1.39442 | 14467 ft | 318 kts | 33° |
| 2026-04-26 12:28 | 51.92876 | -1.37465 | 15546 ft | 325 kts | 33° |
| 2026-04-26 12:28 | 51.94815 | -1.35437 | 16411 ft | 338 kts | 32° |
| 2026-04-26 12:28 | 51.96826 | -1.33345 | 17276 ft | 348 kts | 32° |
| 2026-04-26 12:28 | 51.98890 | -1.31206 | 18177 ft | 355 kts | 32° |
| 2026-04-26 12:29 | 52.00994 | -1.29032 | 19075 ft | 362 kts | 32° |
| 2026-04-26 12:29 | 52.03135 | -1.26822 | 19949 ft | 368 kts | 32° |
| 2026-04-26 12:29 | 52.07524 | -1.22288 | 21636 ft | 380 kts | 32° |
| 2026-04-26 12:30 | 52.09742 | -1.19992 | 22432 ft | 385 kts | 32° |
| 2026-04-26 12:30 | 52.12042 | -1.17609 | 23222 ft | 391 kts | 32° |
| 2026-04-26 12:30 | 52.14325 | -1.15238 | 23970 ft | 397 kts | 32° |
| 2026-04-26 12:31 | 52.19361 | -1.11499 | 25397 ft | 408 kts | 7° |
| 2026-04-26 12:31 | 52.22193 | -1.11707 | 26069 ft | 412 kts | 347° |
| 2026-04-26 12:31 | 52.24898 | -1.13358 | 26720 ft | 417 kts | 333° |
| 2026-04-26 12:31 | 52.27440 | -1.15687 | 27343 ft | 422 kts | 329° |
| 2026-04-26 12:32 | 52.29966 | -1.18154 | 27939 ft | 427 kts | 329° |
| 2026-04-26 12:32 | 52.32574 | -1.20544 | 28510 ft | 432 kts | 331° |
| 2026-04-26 12:32 | 52.38040 | -1.24867 | 29507 ft | 440 kts | 335° |
| 2026-04-26 12:33 | 52.40861 | -1.26858 | 29945 ft | 444 kts | 337° |
| 2026-04-26 12:33 | 52.43718 | -1.28796 | 30485 ft | 445 kts | 337° |
| 2026-04-26 12:33 | 52.46587 | -1.30713 | 31077 ft | 444 kts | 338° |
| 2026-04-26 12:33 | 52.49441 | -1.32616 | 31638 ft | 444 kts | 338° |
| 2026-04-26 12:34 | 52.52321 | -1.34547 | 31945 ft | 447 kts | 337° |
| 2026-04-26 12:34 | 52.58117 | -1.38249 | 32001 ft | 447 kts | 339° |
| 2026-04-26 12:35 | 52.63955 | -1.41742 | 32000 ft | 446 kts | 340° |
| 2026-04-26 12:35 | 52.69791 | -1.45225 | 32000 ft | 446 kts | 340° |
| 2026-04-26 12:36 | 52.75623 | -1.48745 | 32000 ft | 446 kts | 339° |
| 2026-04-26 12:36 | 52.81444 | -1.52288 | 32000 ft | 446 kts | 339° |
| 2026-04-26 12:37 | 52.87265 | -1.55846 | 32000 ft | 446 kts | 339° |
| 2026-04-26 12:37 | 52.93088 | -1.59420 | 32000 ft | 446 kts | 339° |
| 2026-04-26 12:38 | 52.98892 | -1.63022 | 32000 ft | 446 kts | 338° |
| 2026-04-26 12:38 | 53.04709 | -1.66643 | 32000 ft | 446 kts | 338° |
| 2026-04-26 12:39 | 53.10525 | -1.70262 | 32000 ft | 446 kts | 338° |
| 2026-04-26 12:39 | 53.16333 | -1.73897 | 31999 ft | 446 kts | 337° |
| 2026-04-26 12:40 | 53.22136 | -1.77576 | 32001 ft | 446 kts | 337° |
| 2026-04-26 12:40 | 53.27942 | -1.81244 | 32000 ft | 446 kts | 337° |
| 2026-04-26 12:41 | 53.33712 | -1.84874 | 32000 ft | 446 kts | 337° |
| 2026-04-26 12:41 | 53.39529 | -1.88527 | 32000 ft | 446 kts | 337° |
| 2026-04-26 12:42 | 53.45340 | -1.92181 | 32000 ft | 446 kts | 337° |
| 2026-04-26 12:42 | 53.51149 | -1.95850 | 32000 ft | 446 kts | 337° |
| 2026-04-26 12:43 | 53.56954 | -1.99550 | 31999 ft | 446 kts | 336° |
| 2026-04-26 12:43 | 53.62759 | -2.03263 | 31999 ft | 446 kts | 335° |
| 2026-04-26 12:44 | 53.68556 | -2.07043 | 32000 ft | 446 kts | 335° |
| 2026-04-26 12:44 | 53.74354 | -2.10823 | 32001 ft | 447 kts | 335° |
| 2026-04-26 12:45 | 53.80124 | -2.14711 | 32000 ft | 446 kts | 334° |
| 2026-04-26 12:45 | 53.85882 | -2.18669 | 32000 ft | 447 kts | 334° |
| 2026-04-26 12:46 | 53.91637 | -2.22631 | 32000 ft | 447 kts | 334° |
| 2026-04-26 12:46 | 53.97398 | -2.26595 | 32000 ft | 447 kts | 334° |
| 2026-04-26 12:47 | 54.03044 | -2.30952 | 31986 ft | 445 kts | 330° |
| 2026-04-26 12:47 | 54.08538 | -2.35834 | 31999 ft | 446 kts | 328° |
| 2026-04-26 12:48 | 54.13983 | -2.40883 | 32000 ft | 446 kts | 327° |
| 2026-04-26 12:48 | 54.19442 | -2.45959 | 32003 ft | 446 kts | 332° |
| 2026-04-26 12:49 | 54.24921 | -2.50950 | 32000 ft | 446 kts | 331° |
| 2026-04-26 12:49 | 54.30364 | -2.56032 | 32001 ft | 446 kts | 330° |
| 2026-04-26 12:50 | 54.35754 | -2.61128 | 31999 ft | 446 kts | 330° |
| 2026-04-26 12:50 | 54.41179 | -2.66290 | 32000 ft | 446 kts | 330° |
| 2026-04-26 12:51 | 54.46594 | -2.71467 | 32000 ft | 446 kts | 330° |
| 2026-04-26 12:51 | 54.52014 | -2.76660 | 32000 ft | 446 kts | 330° |
| 2026-04-26 12:52 | 54.57428 | -2.81863 | 32000 ft | 446 kts | 330° |
| 2026-04-26 12:52 | 54.62843 | -2.87083 | 32000 ft | 446 kts | 330° |
| 2026-04-26 12:53 | 54.68250 | -2.92311 | 32000 ft | 446 kts | 330° |
| 2026-04-26 12:53 | 54.73663 | -2.97561 | 32000 ft | 446 kts | 330° |
| 2026-04-26 12:54 | 54.79067 | -3.02818 | 32000 ft | 446 kts | 330° |
| 2026-04-26 12:54 | 54.84469 | -3.08091 | 32000 ft | 446 kts | 330° |
| 2026-04-26 12:55 | 54.89725 | -3.13239 | 31263 ft | 425 kts | 330° |
| 2026-04-26 12:55 | 54.92305 | -3.15773 | 30051 ft | 428 kts | 330° |
| 2026-04-26 12:55 | 54.94882 | -3.18306 | 28537 ft | 417 kts | 330° |
| 2026-04-26 12:55 | 54.97316 | -3.20698 | 26366 ft | 390 kts | 330° |
| 2026-04-26 12:56 | 54.99624 | -3.22966 | 24842 ft | 362 kts | 330° |
| 2026-04-26 12:56 | 55.01711 | -3.25021 | 23742 ft | 331 kts | 330° |
| 2026-04-26 12:56 | 55.03684 | -3.26971 | 22004 ft | 324 kts | 330° |
| 2026-04-26 12:56 | 55.05658 | -3.28926 | 20289 ft | 328 kts | 330° |
| 2026-04-26 12:57 | 55.07635 | -3.30886 | 19425 ft | 328 kts | 329° |
| 2026-04-26 12:57 | 55.09629 | -3.32868 | 19111 ft | 336 kts | 329° |
| 2026-04-26 12:57 | 55.11720 | -3.34966 | 18858 ft | 360 kts | 329° |
| 2026-04-26 12:58 | 55.16105 | -3.39323 | 18348 ft | 362 kts | 330° |
| 2026-04-26 12:58 | 55.18287 | -3.41491 | 18098 ft | 360 kts | 330° |
| 2026-04-26 12:58 | 55.20463 | -3.43658 | 17850 ft | 359 kts | 330° |
| 2026-04-26 12:58 | 55.22629 | -3.45819 | 17599 ft | 357 kts | 329° |
| 2026-04-26 12:59 | 55.24783 | -3.47972 | 17349 ft | 356 kts | 329° |
| 2026-04-26 12:59 | 55.26926 | -3.50117 | 17100 ft | 354 kts | 329° |
| 2026-04-26 12:59 | 55.29059 | -3.52255 | 16850 ft | 352 kts | 329° |
| 2026-04-26 12:59 | 55.31183 | -3.54386 | 16600 ft | 351 kts | 329° |
| 2026-04-26 13:00 | 55.32581 | -3.55791 | 16434 ft | 350 kts | 329° |
| 2026-04-26 13:00 | 55.35395 | -3.58622 | 15882 ft | 347 kts | 329° |
| 2026-04-26 13:00 | 55.37486 | -3.60728 | 15338 ft | 344 kts | 329° |
| 2026-04-26 13:00 | 55.39553 | -3.62811 | 14799 ft | 341 kts | 329° |
| 2026-04-26 13:01 | 55.41597 | -3.64872 | 14269 ft | 337 kts | 329° |
| 2026-04-26 13:01 | 55.43624 | -3.66919 | 13744 ft | 334 kts | 329° |
| 2026-04-26 13:01 | 55.45630 | -3.68949 | 13224 ft | 331 kts | 329° |
| 2026-04-26 13:01 | 55.47616 | -3.70961 | 12710 ft | 328 kts | 329° |
| 2026-04-26 13:02 | 55.49586 | -3.72959 | 12199 ft | 325 kts | 329° |
| 2026-04-26 13:02 | 55.51518 | -3.74922 | 11835 ft | 313 kts | 329° |
| 2026-04-26 13:02 | 55.53382 | -3.76817 | 11460 ft | 309 kts | 329° |
| 2026-04-26 13:02 | 55.55235 | -3.78705 | 10791 ft | 306 kts | 329° |
| 2026-04-26 13:03 | 55.57065 | -3.80572 | 10277 ft | 302 kts | 329° |
| 2026-04-26 13:03 | 55.58878 | -3.82423 | 10034 ft | 300 kts | 329° |
| 2026-04-26 13:03 | 55.60681 | -3.84266 | 9999 ft | 299 kts | 329° |
| 2026-04-26 13:03 | 55.62469 | -3.86097 | 9631 ft | 294 kts | 329° |
| 2026-04-26 13:04 | 55.64246 | -3.87917 | 8887 ft | 295 kts | 329° |
| 2026-04-26 13:04 | 55.66004 | -3.89718 | 8363 ft | 289 kts | 329° |
| 2026-04-26 13:04 | 55.67718 | -3.91478 | 7892 ft | 281 kts | 329° |
| 2026-04-26 13:04 | 55.69396 | -3.93187 | 7444 ft | 275 kts | 331° |
| 2026-04-26 13:05 | 55.71100 | -3.94596 | 7073 ft | 267 kts | 336° |
| 2026-04-26 13:05 | 55.72813 | -3.95827 | 6579 ft | 265 kts | 338° |
| 2026-04-26 13:05 | 55.74511 | -3.97010 | 6216 ft | 260 kts | 338° |
| 2026-04-26 13:05 | 55.76187 | -3.98176 | 5944 ft | 258 kts | 338° |
| 2026-04-26 13:06 | 55.77855 | -3.99340 | 5679 ft | 257 kts | 338° |
| 2026-04-26 13:06 | 55.79516 | -4.00503 | 5410 ft | 256 kts | 338° |
| 2026-04-26 13:06 | 55.81169 | -4.01663 | 5140 ft | 255 kts | 338° |
| 2026-04-26 13:06 | 55.82810 | -4.02815 | 4875 ft | 253 kts | 338° |
| 2026-04-26 13:07 | 55.84446 | -4.03966 | 4609 ft | 252 kts | 338° |
| 2026-04-26 13:07 | 55.86079 | -4.05115 | 4344 ft | 251 kts | 338° |
| 2026-04-26 13:07 | 55.87698 | -4.06257 | 4013 ft | 250 kts | 338° |
| 2026-04-26 13:07 | 55.89296 | -4.07384 | 3569 ft | 250 kts | 338° |
| 2026-04-26 13:08 | 55.90902 | -4.08517 | 3257 ft | 247 kts | 338° |
| 2026-04-26 13:08 | 55.92493 | -4.09642 | 3000 ft | 246 kts | 338° |
| 2026-04-26 13:08 | 55.94077 | -4.10763 | 2768 ft | 244 kts | 338° |
| 2026-04-26 13:08 | 55.95650 | -4.11879 | 2708 ft | 240 kts | 338° |
| 2026-04-26 13:09 | 55.97127 | -4.12920 | 2700 ft | 211 kts | 338° |
| 2026-04-26 13:09 | 55.98410 | -4.13901 | 2700 ft | 193 kts | 330° |
| 2026-04-26 13:09 | 55.99399 | -4.15408 | 2704 ft | 186 kts | 303° |
| 2026-04-26 13:09 | 55.99838 | -4.17522 | 2705 ft | 183 kts | 272° |
| 2026-04-26 13:10 | 55.99627 | -4.19602 | 2710 ft | 163 kts | 243° |
| 2026-04-26 13:10 | 55.98991 | -4.21204 | 2720 ft | 156 kts | 228° |
| 2026-04-26 13:10 | 55.98246 | -4.22609 | 2705 ft | 155 kts | 226° |
| 2026-04-26 13:10 | 55.97504 | -4.23992 | 2695 ft | 153 kts | 226° |
| 2026-04-26 13:11 | 55.96765 | -4.25380 | 2599 ft | 154 kts | 227° |
| 2026-04-26 13:11 | 55.96025 | -4.26773 | 2390 ft | 155 kts | 226° |
| 2026-04-26 13:11 | 55.95278 | -4.28177 | 2165 ft | 158 kts | 226° |
| 2026-04-26 13:11 | 55.94513 | -4.29615 | 1938 ft | 162 kts | 226° |
| 2026-04-26 13:12 | 55.93743 | -4.31060 | 1736 ft | 156 kts | 226° |
| 2026-04-26 13:12 | 55.93040 | -4.32379 | 1539 ft | 138 kts | 226° |
| 2026-04-26 13:12 | 55.92612 | -4.33180 | 1414 ft | 131 kts | 226° |
| 2026-04-26 13:12 | 55.91997 | -4.34333 | 1236 ft | 127 kts | 226° |
| 2026-04-26 13:13 | 55.91390 | -4.35472 | 1068 ft | 127 kts | 226° |
| 2026-04-26 13:13 | 55.90784 | -4.36609 | 896 ft | 127 kts | 226° |
| 2026-04-26 13:13 | 55.90180 | -4.37740 | 730 ft | 125 kts | 226° |
| 2026-04-26 13:13 | 55.89582 | -4.38861 | 563 ft | 124 kts | 226° |
| 2026-04-26 13:14 | 55.88981 | -4.39986 | 403 ft | 125 kts | 226° |
| 2026-04-26 13:14 | 55.88392 | -4.41100 | 232 ft | 125 kts | 226° |
| 2026-04-26 13:14 | 55.87775 | -4.42251 | 76 ft | 126 kts | 226° |
| 2026-04-26 13:14 | 55.87241 | -4.43244 | 38 ft | 86 kts | 227° |
| 2026-04-26 13:15 | 55.86957 | -4.43675 | 38 ft | 31 kts | 205° |
| 2026-04-26 13:15 | 55.86785 | -4.43770 | 38 ft | 23 kts | 200° |
| 2026-04-26 13:15 | 55.86671 | -4.43867 | 38 ft | 15 kts | 212° |
| 2026-04-26 13:15 | 55.86603 | -4.43988 | 38 ft | 13 kts | 226° |
| 2026-04-26 13:16 | 55.86530 | -4.44012 | 38 ft | 10 kts | 159° |
| 2026-04-26 13:16 | 55.86480 | -4.43976 | 38 ft | 6 kts | 186° |
| 2026-04-26 13:16 | 55.86453 | -4.44038 | 38 ft | 7 kts | 243° |
| 2026-04-26 13:16 | 55.86437 | -4.44090 | 38 ft | 2 kts | 241° |
| 2026-04-26 13:17 | 55.86432 | -4.44104 | 38 ft | 0 kts | 241° |
| 2026-04-26 13:19 | 55.86433 | -4.44104 | 38 ft | 0 kts | 241° |